createdAt,value
2022-11-21T00:01:28.606Z,13.80
2022-11-21T00:03:56.330Z,12.98
2022-11-21T00:06:23.930Z,13.13
2022-11-21T00:08:52.167Z,14.27
2022-11-21T00:11:20.201Z,11.98
2022-11-21T00:13:47.796Z,13.90
2022-11-21T00:16:18.329Z,10.93
2022-11-21T00:18:46.034Z,16.08
2022-11-21T00:21:16.253Z,11.35
2022-11-21T00:23:45.181Z,22.42
2022-11-21T00:26:15.129Z,9.80
2022-11-21T00:28:44.060Z,13.10
2022-11-21T00:31:23.211Z,11.90
2022-11-21T00:33:51.252Z,14.98
2022-11-21T00:36:19.767Z,14.05
2022-11-21T00:38:47.735Z,16.00
2022-11-21T00:41:15.329Z,10.45
2022-11-21T00:43:42.850Z,12.98
2022-11-21T00:46:10.584Z,12.70
2022-11-21T00:48:38.317Z,15.25
2022-11-21T00:51:05.926Z,9.52
2022-11-21T00:53:34.006Z,13.35
2022-11-21T00:56:01.866Z,18.02
2022-11-21T00:58:29.674Z,11.23
2022-11-21T01:01:11.976Z,15.30
2022-11-21T01:03:40.238Z,12.57
2022-11-21T01:06:13.183Z,10.30
2022-11-21T01:08:42.904Z,13.60
2022-11-21T01:11:14.280Z,16.50
2022-11-21T01:13:42.603Z,19.15
2022-11-21T01:16:12.918Z,16.90
2022-11-21T01:18:40.569Z,12.20
2022-11-21T01:21:14.576Z,14.25
2022-11-21T01:23:42.706Z,17.35
2022-11-21T01:26:14.625Z,10.27
2022-11-21T01:28:43.044Z,14.73
2022-11-21T01:31:13.410Z,12.57
2022-11-21T01:33:41.882Z,15.43
2022-11-21T01:36:18.785Z,17.58
2022-11-21T01:38:49.478Z,17.75
2022-11-21T01:41:20.989Z,15.55
2022-11-21T01:43:49.425Z,8.25
2022-11-21T01:46:21.798Z,11.88
2022-11-21T01:49:06.825Z,19.17
2022-11-21T01:51:46.915Z,16.70
2022-11-21T01:54:17.335Z,22.48
2022-11-21T01:57:11.519Z,10.05
2022-11-21T01:59:47.440Z,17.50
2022-11-21T02:02:18.288Z,11.20
2022-11-21T02:07:17.027Z,15.23
2022-11-21T02:09:49.332Z,14.40
2022-11-21T02:12:35.655Z,12.00
2022-11-21T02:15:03.458Z,13.48
2022-11-21T02:17:32.257Z,20.20
2022-11-21T02:20:02.956Z,14.82
2022-11-21T02:22:57.824Z,16.55
2022-11-21T02:25:34.158Z,14.32
2022-11-21T02:28:05.490Z,16.15
2022-11-21T02:30:36.940Z,14.57
2022-11-21T02:33:05.349Z,17.38
2022-11-21T02:35:36.598Z,20.05
2022-11-21T02:38:21.087Z,19.10
2022-11-21T02:40:53.887Z,13.75
2022-11-21T02:43:39.858Z,18.77
2022-11-21T02:46:07.646Z,14.15
2022-11-21T02:48:37.383Z,17.58
2022-11-21T02:51:05.073Z,21.63
2022-11-21T02:53:33.014Z,16.20
2022-11-21T02:56:00.521Z,14.07
2022-11-21T02:58:28.412Z,17.45
2022-11-21T03:00:56.267Z,15.93
2022-11-21T03:03:23.884Z,14.68
2022-11-21T03:05:51.922Z,18.48
2022-11-21T03:08:19.601Z,16.20
2022-11-21T03:10:47.300Z,22.45
2022-11-21T03:13:17.606Z,14.93
2022-11-21T03:15:45.233Z,14.05
2022-11-21T03:18:12.869Z,20.38
2022-11-21T03:20:40.529Z,19.88
2022-11-21T03:23:08.062Z,19.42
2022-11-21T03:25:35.597Z,20.60
2022-11-21T03:28:03.398Z,18.80
2022-11-21T03:30:31.152Z,12.55
2022-11-21T03:32:58.837Z,21.45
2022-11-21T03:35:26.503Z,14.90
2022-11-21T03:37:53.990Z,12.70
2022-11-21T03:40:21.942Z,13.95
2022-11-21T03:42:49.442Z,15.18
2022-11-21T03:45:17.059Z,13.30
2022-11-21T03:47:44.798Z,18.55
2022-11-21T03:50:15.122Z,18.05
2022-11-21T03:52:42.956Z,19.70
2022-11-21T03:55:10.519Z,15.85
2022-11-21T03:57:39.479Z,13.70
2022-11-21T04:00:07.944Z,18.70
2022-11-21T04:02:35.851Z,13.77
2022-11-21T04:05:03.843Z,9.63
2022-11-21T04:07:31.619Z,16.08
2022-11-21T04:09:59.384Z,22.88
2022-11-21T04:12:27.021Z,9.40
2022-11-21T04:14:54.542Z,11.05
2022-11-21T04:17:22.058Z,15.38
2022-11-21T04:19:49.730Z,13.80
2022-11-21T04:22:20.374Z,15.18
2022-11-21T04:24:48.070Z,10.77
2022-11-21T04:27:15.720Z,15.20
2022-11-21T04:29:43.256Z,11.48
2022-11-21T04:32:10.880Z,14.18
2022-11-21T04:34:39.704Z,17.52
2022-11-21T04:37:11.416Z,11.02
2022-11-21T04:39:39.279Z,14.15
2022-11-21T04:42:06.873Z,13.32
2022-11-21T04:44:34.488Z,14.73
2022-11-21T04:47:05.368Z,13.63
2022-11-21T04:49:33.488Z,18.98
2022-11-21T04:52:01.113Z,18.13
2022-11-21T04:54:29.035Z,17.63
2022-11-21T04:56:57.079Z,15.23
2022-11-21T04:59:24.616Z,12.15
2022-11-21T05:01:52.395Z,13.25
2022-11-21T05:04:20.255Z,11.15
2022-11-21T05:06:48.064Z,13.75
2022-11-21T05:09:15.792Z,15.75
2022-11-21T05:12:02.220Z,15.18
2022-11-21T05:14:30.123Z,15.98
2022-11-21T05:16:57.949Z,14.93
2022-11-21T05:19:25.706Z,12.55
2022-11-21T05:21:54.025Z,19.95
2022-11-21T05:24:21.519Z,14.50
2022-11-21T05:26:49.028Z,15.05
2022-11-21T05:29:16.508Z,14.05
2022-11-21T05:31:44.121Z,17.77
2022-11-21T05:34:11.588Z,18.42
2022-11-21T05:36:39.148Z,12.73
2022-11-21T05:39:06.844Z,15.55
2022-11-21T05:41:34.391Z,17.60
2022-11-21T05:44:01.827Z,14.32
2022-11-21T05:46:29.341Z,14.25
2022-11-21T05:48:57.341Z,22.52
2022-11-21T05:51:25.037Z,15.13
2022-11-21T05:53:52.555Z,15.30
2022-11-21T05:56:20.164Z,25.17
2022-11-21T05:58:47.713Z,27.38
2022-11-21T06:01:16.031Z,23.05
2022-11-21T06:03:43.659Z,22.17
2022-11-21T06:06:13.591Z,27.23
2022-11-21T06:08:46.390Z,29.15
2022-11-21T06:11:15.993Z,23.77
2022-11-21T06:13:43.831Z,27.60
2022-11-21T06:16:16.589Z,21.50
2022-11-21T06:18:46.094Z,24.83
2022-11-21T06:21:19.100Z,17.70
2022-11-21T06:23:47.965Z,17.58
2022-11-21T06:26:17.842Z,15.85
2022-11-21T06:28:46.464Z,22.55
2022-11-21T06:31:19.651Z,17.83
2022-11-21T06:33:47.926Z,22.65
2022-11-21T06:36:17.874Z,17.33
2022-11-21T06:38:46.311Z,20.80
2022-11-21T06:41:19.504Z,15.20
2022-11-21T06:43:47.495Z,17.90
2022-11-21T06:46:15.867Z,24.38
2022-11-21T06:48:44.045Z,19.73
2022-11-21T06:51:16.993Z,14.60
2022-11-21T06:53:48.284Z,21.27
2022-11-21T06:56:15.911Z,24.88
2022-11-21T06:58:43.282Z,17.00
2022-11-21T07:01:11.591Z,16.75
2022-11-21T07:03:39.420Z,14.80
2022-11-21T07:06:06.935Z,23.17
2022-11-21T07:08:36.188Z,22.60
2022-11-21T07:11:25.475Z,21.25
2022-11-21T07:13:53.650Z,25.70
2022-11-21T07:16:23.868Z,27.58
2022-11-21T07:18:51.526Z,21.20
2022-11-21T07:21:19.102Z,19.13
2022-11-21T07:23:46.958Z,29.20
2022-11-21T07:26:15.136Z,20.02
2022-11-21T07:28:43.391Z,22.08
2022-11-21T07:31:13.904Z,17.73
2022-11-21T07:33:43.733Z,31.65
2022-11-21T07:36:12.902Z,26.85
2022-11-21T07:38:41.788Z,29.08
2022-11-21T07:41:10.017Z,18.48
2022-11-21T07:43:37.800Z,25.90
2022-11-21T07:46:05.350Z,13.63
2022-11-21T07:48:33.368Z,18.52
2022-11-21T07:51:04.860Z,19.52
2022-11-21T07:53:32.422Z,17.98
2022-11-21T07:56:01.218Z,17.75
2022-11-21T07:58:28.947Z,24.23
2022-11-21T08:00:57.334Z,24.27
2022-11-21T08:03:25.509Z,23.65
2022-11-21T08:05:53.106Z,18.00
2022-11-21T08:08:20.611Z,14.13
2022-11-21T08:10:48.515Z,24.13
2022-11-21T08:13:16.116Z,19.52
2022-11-21T08:15:43.860Z,19.10
2022-11-21T08:18:19.205Z,18.13
2022-11-21T08:20:47.147Z,21.77
2022-11-21T08:23:14.730Z,23.40
2022-11-21T08:25:42.965Z,19.58
2022-11-21T08:28:11.411Z,17.90
2022-11-21T08:30:39.757Z,19.98
2022-11-21T08:33:07.697Z,20.77
2022-11-21T08:35:38.130Z,23.27
2022-11-21T08:38:06.537Z,14.95
2022-11-21T08:40:35.267Z,17.88
2022-11-21T08:43:08.234Z,16.88
2022-11-21T08:45:36.993Z,21.42
2022-11-21T08:48:08.888Z,20.55
2022-11-21T08:50:36.464Z,17.27
2022-11-21T08:53:03.951Z,17.83
2022-11-21T08:55:31.557Z,20.85
2022-11-21T08:57:59.465Z,26.10
2022-11-21T09:00:27.226Z,15.52
2022-11-21T09:02:54.697Z,25.33
2022-11-21T09:05:22.184Z,20.15
2022-11-21T09:07:57.266Z,21.77
2022-11-21T09:10:26.644Z,17.95
2022-11-21T09:12:58.808Z,15.35
2022-11-21T09:15:44.865Z,17.02
2022-11-21T09:18:12.382Z,15.80
2022-11-21T09:20:42.209Z,23.70
2022-11-21T09:23:13.120Z,20.00
2022-11-21T09:25:41.886Z,26.40
2022-11-21T09:28:12.482Z,24.85
2022-11-21T09:30:41.321Z,25.65
2022-11-21T09:33:11.846Z,21.15
2022-11-21T09:35:39.784Z,13.15
2022-11-21T09:38:07.654Z,21.10
2022-11-21T09:40:36.572Z,22.17
2022-11-21T09:43:39.059Z,22.17
2022-11-21T09:46:17.493Z,22.95
2022-11-21T09:48:56.109Z,23.30
2022-11-21T09:51:27.137Z,17.88
2022-11-21T09:56:31.681Z,22.67
2022-11-21T09:59:20.508Z,22.45
2022-11-21T10:01:48.490Z,24.95
2022-11-21T10:04:18.751Z,23.92
2022-11-21T10:06:52.376Z,22.15
2022-11-21T10:10:03.956Z,26.38
2022-11-21T10:12:37.537Z,25.02
2022-11-21T10:15:29.360Z,16.35
2022-11-21T10:18:15.491Z,26.75
2022-11-21T10:21:20.514Z,25.35
2022-11-21T10:23:58.208Z,24.55
2022-11-21T10:26:52.228Z,31.45
2022-11-21T10:29:37.048Z,27.13
2022-11-21T10:32:31.136Z,27.33
2022-11-21T10:35:04.791Z,19.08
2022-11-21T10:37:37.073Z,32.70
2022-11-21T10:40:20.435Z,37.22
2022-11-21T10:42:52.433Z,31.13
2022-11-21T10:45:20.459Z,32.65
2022-11-21T10:47:51.138Z,24.88
2022-11-21T10:50:49.598Z,30.48
2022-11-21T10:53:40.413Z,26.95
2022-11-21T10:56:20.308Z,31.38
2022-11-21T10:58:53.365Z,28.85
2022-11-21T11:01:22.539Z,23.00
2022-11-21T11:07:00.128Z,31.15
2022-11-21T11:09:33.723Z,20.97
2022-11-21T11:12:50.676Z,28.35
2022-11-21T11:15:23.643Z,23.27
2022-11-21T11:17:56.879Z,23.58
2022-11-21T11:20:44.040Z,26.58
2022-11-21T11:23:22.444Z,27.63
2022-11-21T11:25:54.204Z,32.50
2022-11-21T11:28:21.877Z,28.65
2022-11-21T11:30:50.173Z,34.30
2022-11-21T11:33:50.640Z,32.85
2022-11-21T11:36:45.275Z,26.70
2022-11-21T11:39:36.099Z,28.05
2022-11-21T11:42:25.359Z,40.40
2022-11-21T11:45:18.897Z,28.58
2022-11-21T11:47:57.758Z,36.53
2022-11-21T11:50:31.441Z,38.08
2022-11-21T11:53:41.009Z,27.85
2022-11-21T11:56:21.306Z,42.08
2022-11-21T11:59:11.806Z,46.30
2022-11-21T12:01:46.291Z,43.70
2022-11-21T12:04:22.064Z,36.00
2022-11-21T12:10:07.720Z,27.08
2022-11-21T12:12:40.030Z,29.10
2022-11-21T12:15:50.534Z,34.35
2022-11-21T12:18:21.547Z,31.30
2022-11-21T12:23:40.556Z,35.97
2022-11-21T12:26:52.835Z,35.55
2022-11-21T12:30:05.060Z,32.00
2022-11-21T12:33:12.473Z,26.02
2022-11-21T12:36:17.745Z,29.83
2022-11-21T12:39:31.299Z,28.52
2022-11-21T12:42:47.246Z,35.97
2022-11-21T12:45:41.334Z,31.50
2022-11-21T12:48:37.533Z,25.70
2022-11-21T12:51:46.150Z,27.40
2022-11-21T12:54:34.473Z,33.97
2022-11-21T12:57:25.367Z,27.15
2022-11-21T13:00:14.231Z,20.60
2022-11-21T13:02:46.483Z,29.58
2022-11-21T13:05:24.379Z,28.77
2022-11-21T13:07:58.684Z,25.75
2022-11-21T13:10:27.478Z,25.00
2022-11-21T13:13:05.024Z,17.27
2022-11-21T13:16:08.719Z,22.05
2022-11-21T13:18:43.510Z,17.17
2022-11-21T13:21:50.610Z,20.02
2022-11-21T13:24:47.684Z,21.83
2022-11-21T13:27:36.452Z,18.95
2022-11-21T13:30:11.512Z,15.13
2022-11-21T13:32:54.438Z,12.80
2022-11-21T13:35:22.358Z,15.30
2022-11-21T13:37:49.920Z,11.55
2022-11-21T13:40:26.599Z,10.38
2022-11-21T13:46:00.955Z,11.57
2022-11-21T13:48:31.355Z,11.82
2022-11-21T13:51:27.456Z,10.82
2022-11-21T13:54:16.921Z,11.18
2022-11-21T13:57:13.193Z,12.80
2022-11-21T13:59:49.475Z,11.77
2022-11-21T14:02:46.138Z,12.88
2022-11-21T14:05:17.356Z,10.63
2022-11-21T14:07:47.748Z,12.13
2022-11-21T14:10:25.541Z,7.97
2022-11-21T14:12:56.497Z,14.50
2022-11-21T14:15:27.108Z,5.70
2022-11-21T14:17:59.738Z,10.63
2022-11-21T14:20:49.436Z,11.15
2022-11-21T14:23:20.533Z,9.32
2022-11-21T14:25:50.899Z,17.58
2022-11-21T14:28:36.880Z,8.23
2022-11-21T14:31:09.928Z,14.35
2022-11-21T14:33:39.763Z,10.48
2022-11-21T14:36:13.066Z,9.23
2022-11-21T14:39:28.836Z,11.35
2022-11-21T14:41:49.635Z,14.60
2022-11-21T14:44:19.742Z,14.82
2022-11-21T14:46:48.276Z,12.53
2022-11-21T14:49:15.742Z,12.05
2022-11-21T14:51:48.227Z,13.95
2022-11-21T14:54:25.776Z,12.02
2022-11-21T14:57:02.030Z,12.20
2022-11-21T14:59:39.014Z,7.97
2022-11-21T15:02:25.328Z,11.80
2022-11-21T15:04:57.780Z,6.75
2022-11-21T15:07:35.187Z,6.70
2022-11-21T15:13:04.418Z,7.22
2022-11-21T15:15:52.977Z,6.68
2022-11-21T15:18:27.992Z,4.43
2022-11-21T15:21:03.321Z,8.05
2022-11-21T15:23:40.197Z,7.30
2022-11-21T15:26:29.851Z,8.48
2022-11-21T15:28:59.557Z,6.32
2022-11-21T15:31:28.036Z,8.52
2022-11-21T15:37:05.649Z,8.48
2022-11-21T15:39:34.490Z,13.43
2022-11-21T15:42:33.359Z,6.85
2022-11-21T15:45:20.242Z,6.78
2022-11-21T15:48:09.856Z,8.45
2022-11-21T15:50:38.134Z,6.85
2022-11-21T15:53:06.176Z,4.82
2022-11-21T15:55:34.786Z,7.60
2022-11-21T15:58:02.642Z,4.53
2022-11-21T16:00:30.455Z,8.50
2022-11-21T16:02:58.853Z,5.85
2022-11-21T16:05:26.652Z,5.72
2022-11-21T16:07:54.358Z,6.38
2022-11-21T16:10:27.576Z,5.47
2022-11-21T16:12:56.276Z,7.75
2022-11-21T16:15:24.228Z,7.45
2022-11-21T16:17:52.421Z,5.20
2022-11-21T16:20:20.139Z,4.68
2022-11-21T16:22:49.923Z,5.80
2022-11-21T16:25:18.301Z,7.82
2022-11-21T16:27:48.699Z,7.72
2022-11-21T16:30:19.350Z,6.43
2022-11-21T16:32:47.207Z,7.40
2022-11-21T16:35:14.946Z,4.75
2022-11-21T16:37:42.511Z,4.40
2022-11-21T16:40:10.759Z,7.25
2022-11-21T16:42:38.397Z,9.43
2022-11-21T16:45:09.249Z,9.27
2022-11-21T16:47:38.308Z,10.18
2022-11-21T16:50:06.548Z,8.90
2022-11-21T16:52:40.227Z,11.27
2022-11-21T16:55:08.533Z,7.78
2022-11-21T16:57:36.529Z,12.70
2022-11-21T17:00:04.766Z,3.35
2022-11-21T17:02:32.418Z,1.35
2022-11-21T17:04:59.976Z,1.67
2022-11-21T17:07:27.580Z,1.85
2022-11-21T17:09:55.281Z,2.58
2022-11-21T17:12:23.458Z,1.60
2022-11-21T17:14:51.425Z,6.93
2022-11-21T17:17:19.198Z,2.83
2022-11-21T17:19:46.888Z,3.50
2022-11-21T17:22:14.427Z,2.95
2022-11-21T17:24:42.301Z,3.03
2022-11-21T17:27:09.941Z,2.70
2022-11-21T17:29:38.967Z,2.55
2022-11-21T17:32:06.760Z,1.30
2022-11-21T17:34:34.495Z,4.38
2022-11-21T17:37:02.797Z,2.10
2022-11-21T17:39:30.945Z,1.50
2022-11-21T17:42:00.034Z,1.80
2022-11-21T17:44:28.418Z,5.15
2022-11-21T17:46:59.240Z,2.10
2022-11-21T17:49:29.834Z,1.70
2022-11-21T17:51:57.466Z,2.85
2022-11-21T17:54:25.178Z,2.85
2022-11-21T17:56:56.574Z,1.55
2022-11-21T17:59:24.670Z,4.20
2022-11-21T18:01:52.432Z,6.80
2022-11-21T18:04:20.289Z,5.18
2022-11-21T18:06:48.319Z,4.40
2022-11-21T18:09:16.861Z,5.35
2022-11-21T18:11:46.209Z,6.18
2022-11-21T18:14:14.228Z,7.65
2022-11-21T18:16:46.033Z,5.95
2022-11-21T18:19:17.474Z,8.55
2022-11-21T18:21:46.078Z,5.95
2022-11-21T18:24:13.605Z,5.60
2022-11-21T18:26:41.429Z,7.95
2022-11-21T18:31:59.710Z,8.07
2022-11-21T18:34:27.600Z,8.85
2022-11-21T18:36:55.538Z,8.07
2022-11-21T18:39:25.273Z,9.70
2022-11-21T18:41:53.164Z,12.90
2022-11-21T18:44:22.617Z,16.20
2022-11-21T18:46:50.970Z,9.13
2022-11-21T18:49:18.631Z,11.93
2022-11-21T18:51:46.468Z,13.75
2022-11-21T18:54:14.145Z,14.82
2022-11-21T18:56:41.662Z,10.25
2022-11-21T18:59:09.324Z,11.68
2022-11-21T19:01:39.739Z,10.20
2022-11-21T19:04:07.889Z,9.77
2022-11-21T19:06:35.594Z,13.48
2022-11-21T19:09:03.272Z,13.43
2022-11-21T19:11:30.778Z,16.95
2022-11-21T19:14:00.555Z,18.35
2022-11-21T19:16:31.538Z,23.90
2022-11-21T19:19:32.546Z,12.98
2022-11-21T19:21:47.581Z,12.88
2022-11-21T19:24:16.557Z,18.17
2022-11-21T19:26:44.107Z,15.35
2022-11-21T19:29:11.850Z,15.57
2022-11-21T19:31:45.129Z,14.05
2022-11-21T19:34:15.336Z,18.45
2022-11-21T19:36:43.400Z,15.68
2022-11-21T19:39:11.954Z,17.13
2022-11-21T19:41:39.605Z,15.88
2022-11-21T19:44:07.260Z,18.30
2022-11-21T19:46:39.378Z,19.98
2022-11-21T19:49:08.497Z,15.43
2022-11-21T19:51:39.746Z,20.63
2022-11-21T19:54:08.811Z,14.27
2022-11-21T19:56:40.338Z,16.80
2022-11-21T19:59:11.544Z,20.67
2022-11-21T20:01:39.685Z,12.82
2022-11-21T20:04:07.232Z,18.88
2022-11-21T20:06:39.954Z,14.18
2022-11-21T20:09:09.911Z,19.52
2022-11-21T20:11:40.074Z,15.52
2022-11-21T20:14:07.703Z,21.20
2022-11-21T20:16:38.495Z,23.65
2022-11-21T20:19:09.833Z,17.88
2022-11-21T20:21:38.844Z,20.38
2022-11-21T20:24:07.340Z,16.15
2022-11-21T20:26:36.281Z,18.15
2022-11-21T20:29:04.947Z,17.75
2022-11-21T20:31:34.847Z,20.45
2022-11-21T20:34:05.997Z,23.65
2022-11-21T20:36:36.885Z,23.17
2022-11-21T20:41:35.850Z,16.67
2022-11-21T20:46:53.797Z,19.43
2022-11-21T20:49:21.632Z,16.90
2022-11-21T20:53:26.344Z,11.88
2022-11-21T20:54:38.494Z,19.52
2022-11-21T20:57:10.382Z,16.77
2022-11-21T20:59:40.805Z,15.52
2022-11-21T21:02:11.991Z,14.77
2022-11-21T21:04:39.814Z,14.73
2022-11-21T21:07:07.367Z,17.92
2022-11-21T21:09:34.985Z,11.27
2022-11-21T21:12:02.725Z,13.00
2022-11-21T21:14:30.380Z,19.63
2022-11-21T21:16:57.843Z,12.85
2022-11-21T21:19:25.474Z,15.88
2022-11-21T21:21:52.967Z,16.35
2022-11-21T21:24:22.966Z,13.02
2022-11-21T21:26:50.521Z,13.68
2022-11-21T21:29:20.525Z,16.67
2022-11-21T21:31:52.573Z,15.13
2022-11-21T21:34:22.052Z,16.58
2022-11-21T21:36:50.127Z,18.13
2022-11-21T21:39:17.777Z,12.73
2022-11-21T21:41:47.112Z,18.20
2022-11-21T21:44:15.949Z,14.02
2022-11-21T21:46:43.741Z,16.83
2022-11-21T21:49:11.280Z,19.15
2022-11-21T21:51:40.312Z,14.50
2022-11-21T21:54:16.746Z,16.90
2022-11-21T21:56:46.501Z,18.83
2022-11-21T21:59:14.956Z,11.07
2022-11-21T22:01:42.986Z,14.00
2022-11-21T22:04:12.628Z,12.57
2022-11-21T22:06:40.502Z,15.00
2022-11-21T22:09:08.206Z,10.80
2022-11-21T22:11:40.481Z,12.02
2022-11-21T22:14:13.160Z,11.60
2022-11-21T22:16:41.868Z,17.48
2022-11-21T22:19:09.974Z,15.52
2022-11-21T22:21:38.883Z,14.60
2022-11-21T22:24:31.113Z,12.63
2022-11-21T22:26:59.025Z,16.52
2022-11-21T22:29:26.767Z,10.20
2022-11-21T22:31:54.286Z,12.68
2022-11-21T22:34:22.248Z,13.98
2022-11-21T22:36:49.799Z,10.40
2022-11-21T22:39:17.979Z,9.77
2022-11-21T22:41:45.569Z,11.13
2022-11-21T22:44:13.386Z,13.90
2022-11-21T22:46:40.790Z,14.85
2022-11-21T22:49:08.428Z,16.50
2022-11-21T22:51:35.921Z,11.63
2022-11-21T22:54:03.492Z,16.45
2022-11-21T22:56:31.064Z,12.30
2022-11-21T22:58:58.960Z,9.35
2022-11-21T23:01:26.590Z,12.52
2022-11-21T23:03:55.766Z,14.57
2022-11-21T23:06:25.228Z,8.95
2022-11-21T23:08:54.713Z,13.63
2022-11-21T23:11:36.278Z,10.70
2022-11-21T23:14:07.882Z,7.53
2022-11-21T23:16:35.515Z,12.77
2022-11-21T23:19:03.599Z,12.60
2022-11-21T23:21:31.433Z,17.48
2022-11-21T23:23:59.556Z,12.05
2022-11-21T23:26:27.135Z,11.32
2022-11-21T23:28:55.087Z,12.43
2022-11-21T23:31:22.837Z,14.00
2022-11-21T23:33:50.484Z,10.98
2022-11-21T23:36:17.970Z,11.23
2022-11-21T23:38:45.559Z,15.18
2022-11-21T23:41:13.395Z,11.00
2022-11-21T23:43:40.941Z,10.07
2022-11-21T23:46:08.497Z,12.55
2022-11-21T23:48:36.091Z,11.50
2022-11-21T23:51:03.644Z,11.52
2022-11-21T23:53:31.228Z,16.42
2022-11-21T23:55:58.955Z,8.80
2022-11-21T23:58:26.473Z,7.65
